sensor_id;sensor_type;location;lat;lon;timestamp;P1;durP1;ratioP1;P2;durP2;ratioP2
59960;SDS011;55902;-37.980;-63.602;2022-12-11T00:10:55;3.65;;;1.40;;
59960;SDS011;55902;-37.980;-63.602;2022-12-11T00:13:25;6.55;;;2.08;;
59960;SDS011;55902;-37.980;-63.602;2022-12-11T00:15:52;9.43;;;4.35;;
59960;SDS011;55902;-37.980;-63.602;2022-12-11T00:18:19;15.05;;;5.35;;
59960;SDS011;55902;-37.980;-63.602;2022-12-11T00:20:46;21.65;;;5.53;;
59960;SDS011;55902;-37.980;-63.602;2022-12-11T00:23:13;19.08;;;6.40;;
59960;SDS011;55902;-37.980;-63.602;2022-12-11T00:25:44;13.70;;;6.05;;
59960;SDS011;55902;-37.980;-63.602;2022-12-11T00:28:15;13.93;;;6.82;;
59960;SDS011;55902;-37.980;-63.602;2022-12-11T00:30:45;10.27;;;6.25;;
59960;SDS011;55902;-37.980;-63.602;2022-12-11T00:33:21;9.18;;;5.88;;
59960;SDS011;55902;-37.980;-63.602;2022-12-11T00:35:54;9.73;;;3.03;;
59960;SDS011;55902;-37.980;-63.602;2022-12-11T00:38:21;17.85;;;2.20;;
59960;SDS011;55902;-37.980;-63.602;2022-12-11T00:40:51;14.02;;;2.10;;
59960;SDS011;55902;-37.980;-63.602;2022-12-11T00:43:22;24.08;;;2.00;;
59960;SDS011;55902;-37.980;-63.602;2022-12-11T00:45:49;19.35;;;1.95;;
59960;SDS011;55902;-37.980;-63.602;2022-12-11T00:48:16;13.68;;;1.80;;
59960;SDS011;55902;-37.980;-63.602;2022-12-11T00:50:43;9.85;;;1.50;;
59960;SDS011;55902;-37.980;-63.602;2022-12-11T00:53:11;9.00;;;1.30;;
59960;SDS011;55902;-37.980;-63.602;2022-12-11T00:55:39;9.77;;;1.38;;
59960;SDS011;55902;-37.980;-63.602;2022-12-11T00:58:10;10.00;;;1.48;;
59960;SDS011;55902;-37.980;-63.602;2022-12-11T01:00:38;8.32;;;1.15;;
59960;SDS011;55902;-37.980;-63.602;2022-12-11T01:03:06;11.75;;;1.67;;
59960;SDS011;55902;-37.980;-63.602;2022-12-11T01:05:37;11.20;;;1.85;;
59960;SDS011;55902;-37.980;-63.602;2022-12-11T01:08:04;11.80;;;1.90;;
59960;SDS011;55902;-37.980;-63.602;2022-12-11T01:10:34;12.48;;;1.60;;
59960;SDS011;55902;-37.980;-63.602;2022-12-11T01:13:04;11.82;;;2.05;;
59960;SDS011;55902;-37.980;-63.602;2022-12-11T01:15:42;10.45;;;1.50;;
59960;SDS011;55902;-37.980;-63.602;2022-12-11T01:18:11;11.02;;;1.98;;
59960;SDS011;55902;-37.980;-63.602;2022-12-11T01:20:40;10.05;;;1.30;;
59960;SDS011;55902;-37.980;-63.602;2022-12-11T01:23:08;8.40;;;1.30;;
59960;SDS011;55902;-37.980;-63.602;2022-12-11T01:25:37;10.75;;;1.60;;
59960;SDS011;55902;-37.980;-63.602;2022-12-11T01:28:04;9.60;;;1.83;;
59960;SDS011;55902;-37.980;-63.602;2022-12-11T01:30:32;8.93;;;1.75;;
59960;SDS011;55902;-37.980;-63.602;2022-12-11T01:33:00;16.73;;;2.72;;
59960;SDS011;55902;-37.980;-63.602;2022-12-11T01:35:30;7.78;;;1.70;;
59960;SDS011;55902;-37.980;-63.602;2022-12-11T01:38:00;10.60;;;1.70;;
59960;SDS011;55902;-37.980;-63.602;2022-12-11T01:40:27;9.63;;;2.13;;
59960;SDS011;55902;-37.980;-63.602;2022-12-11T01:42:58;7.75;;;1.80;;
59960;SDS011;55902;-37.980;-63.602;2022-12-11T01:45:26;9.70;;;2.88;;
59960;SDS011;55902;-37.980;-63.602;2022-12-11T01:48:19;9.60;;;2.00;;
59960;SDS011;55902;-37.980;-63.602;2022-12-11T01:50:54;11.40;;;2.05;;
59960;SDS011;55902;-37.980;-63.602;2022-12-11T01:53:28;8.63;;;2.60;;
59960;SDS011;55902;-37.980;-63.602;2022-12-11T01:56:03;7.75;;;1.80;;
59960;SDS011;55902;-37.980;-63.602;2022-12-11T01:58:32;7.03;;;1.90;;
59960;SDS011;55902;-37.980;-63.602;2022-12-11T02:01:02;6.20;;;1.77;;
59960;SDS011;55902;-37.980;-63.602;2022-12-11T02:03:29;9.48;;;1.70;;
59960;SDS011;55902;-37.980;-63.602;2022-12-11T02:06:00;8.20;;;1.80;;
59960;SDS011;55902;-37.980;-63.602;2022-12-11T02:08:27;11.63;;;1.77;;
59960;SDS011;55902;-37.980;-63.602;2022-12-11T02:11:11;5.93;;;1.80;;
59960;SDS011;55902;-37.980;-63.602;2022-12-11T02:13:53;6.60;;;1.50;;
59960;SDS011;55902;-37.980;-63.602;2022-12-11T02:16:52;7.97;;;1.50;;
59960;SDS011;55902;-37.980;-63.602;2022-12-11T02:28:21;5.60;;;1.20;;
59960;SDS011;55902;-37.980;-63.602;2022-12-11T02:30:59;4.20;;;1.10;;
59960;SDS011;55902;-37.980;-63.602;2022-12-11T02:33:41;6.65;;;1.33;;
59960;SDS011;55902;-37.980;-63.602;2022-12-11T02:36:33;6.63;;;1.30;;
59960;SDS011;55902;-37.980;-63.602;2022-12-11T02:39:03;6.03;;;1.17;;
59960;SDS011;55902;-37.980;-63.602;2022-12-11T02:51:39;6.50;;;1.00;;
59960;SDS011;55902;-37.980;-63.602;2022-12-11T02:54:11;6.70;;;1.30;;
59960;SDS011;55902;-37.980;-63.602;2022-12-11T02:59:50;8.57;;;1.27;;
59960;SDS011;55902;-37.980;-63.602;2022-12-11T03:02:17;7.10;;;1.50;;
59960;SDS011;55902;-37.980;-63.602;2022-12-11T03:04:44;10.25;;;1.50;;
59960;SDS011;55902;-37.980;-63.602;2022-12-11T03:07:22;5.43;;;1.30;;
59960;SDS011;55902;-37.980;-63.602;2022-12-11T03:09:52;12.07;;;1.48;;
59960;SDS011;55902;-37.980;-63.602;2022-12-11T03:12:30;5.95;;;1.20;;
59960;SDS011;55902;-37.980;-63.602;2022-12-11T03:14:59;8.35;;;1.20;;
59960;SDS011;55902;-37.980;-63.602;2022-12-11T03:17:32;4.07;;;0.90;;
59960;SDS011;55902;-37.980;-63.602;2022-12-11T03:26:22;8.40;;;1.45;;
59960;SDS011;55902;-37.980;-63.602;2022-12-11T03:28:54;7.25;;;1.15;;
59960;SDS011;55902;-37.980;-63.602;2022-12-11T03:34:07;7.35;;;1.25;;
59960;SDS011;55902;-37.980;-63.602;2022-12-11T03:36:40;6.82;;;1.10;;
59960;SDS011;55902;-37.980;-63.602;2022-12-11T03:39:20;9.82;;;1.42;;
59960;SDS011;55902;-37.980;-63.602;2022-12-11T03:41:52;5.70;;;1.42;;
59960;SDS011;55902;-37.980;-63.602;2022-12-11T03:44:20;4.45;;;0.80;;
59960;SDS011;55902;-37.980;-63.602;2022-12-11T03:46:49;7.68;;;1.33;;
59960;SDS011;55902;-37.980;-63.602;2022-12-11T03:49:21;3.20;;;0.90;;
59960;SDS011;55902;-37.980;-63.602;2022-12-11T03:51:51;4.25;;;1.00;;
59960;SDS011;55902;-37.980;-63.602;2022-12-11T03:54:20;4.05;;;1.13;;
59960;SDS011;55902;-37.980;-63.602;2022-12-11T03:56:55;4.30;;;1.00;;
59960;SDS011;55902;-37.980;-63.602;2022-12-11T03:59:26;4.32;;;1.15;;
59960;SDS011;55902;-37.980;-63.602;2022-12-11T04:01:57;6.65;;;1.35;;
59960;SDS011;55902;-37.980;-63.602;2022-12-11T04:04:24;4.65;;;0.98;;
59960;SDS011;55902;-37.980;-63.602;2022-12-11T04:06:54;6.22;;;1.20;;
59960;SDS011;55902;-37.980;-63.602;2022-12-11T04:09:21;6.32;;;0.90;;
59960;SDS011;55902;-37.980;-63.602;2022-12-11T04:11:48;3.58;;;0.90;;
59960;SDS011;55902;-37.980;-63.602;2022-12-11T04:14:18;6.25;;;1.27;;
59960;SDS011;55902;-37.980;-63.602;2022-12-11T04:17:04;4.15;;;1.00;;
59960;SDS011;55902;-37.980;-63.602;2022-12-11T04:19:31;7.22;;;1.30;;
59960;SDS011;55902;-37.980;-63.602;2022-12-11T04:22:22;6.82;;;1.13;;
59960;SDS011;55902;-37.980;-63.602;2022-12-11T04:25:07;4.25;;;1.00;;
59960;SDS011;55902;-37.980;-63.602;2022-12-11T04:27:38;3.30;;;0.90;;
59960;SDS011;55902;-37.980;-63.602;2022-12-11T04:30:18;4.15;;;1.08;;
59960;SDS011;55902;-37.980;-63.602;2022-12-11T04:32:46;5.80;;;1.23;;
59960;SDS011;55902;-37.980;-63.602;2022-12-11T04:35:14;3.65;;;1.00;;
59960;SDS011;55902;-37.980;-63.602;2022-12-11T04:37:41;6.13;;;1.00;;
59960;SDS011;55902;-37.980;-63.602;2022-12-11T04:40:10;5.55;;;1.27;;
59960;SDS011;55902;-37.980;-63.602;2022-12-11T04:46:07;6.68;;;1.35;;
59960;SDS011;55902;-37.980;-63.602;2022-12-11T04:48:40;10.27;;;1.50;;
59960;SDS011;55902;-37.980;-63.602;2022-12-11T04:51:07;14.60;;;1.67;;
59960;SDS011;55902;-37.980;-63.602;2022-12-11T04:53:35;7.32;;;1.25;;
59960;SDS011;55902;-37.980;-63.602;2022-12-11T04:56:08;5.07;;;1.30;;
59960;SDS011;55902;-37.980;-63.602;2022-12-11T04:58:38;5.32;;;1.23;;
59960;SDS011;55902;-37.980;-63.602;2022-12-11T05:01:07;10.65;;;1.50;;
59960;SDS011;55902;-37.980;-63.602;2022-12-11T05:03:36;10.63;;;1.35;;
59960;SDS011;55902;-37.980;-63.602;2022-12-11T05:06:07;7.50;;;1.30;;
59960;SDS011;55902;-37.980;-63.602;2022-12-11T05:08:35;4.22;;;1.10;;
59960;SDS011;55902;-37.980;-63.602;2022-12-11T05:11:05;9.80;;;1.20;;
59960;SDS011;55902;-37.980;-63.602;2022-12-11T05:13:34;7.25;;;1.15;;
59960;SDS011;55902;-37.980;-63.602;2022-12-11T05:16:05;6.68;;;1.38;;
59960;SDS011;55902;-37.980;-63.602;2022-12-11T05:18:34;5.53;;;1.40;;
59960;SDS011;55902;-37.980;-63.602;2022-12-11T05:21:02;7.25;;;1.30;;
59960;SDS011;55902;-37.980;-63.602;2022-12-11T05:23:30;6.03;;;1.35;;
59960;SDS011;55902;-37.980;-63.602;2022-12-11T05:25:59;9.65;;;1.30;;
59960;SDS011;55902;-37.980;-63.602;2022-12-11T05:28:34;5.70;;;1.40;;
59960;SDS011;55902;-37.980;-63.602;2022-12-11T05:33:40;7.45;;;1.25;;
59960;SDS011;55902;-37.980;-63.602;2022-12-11T05:36:12;5.93;;;1.20;;
59960;SDS011;55902;-37.980;-63.602;2022-12-11T05:38:42;5.00;;;1.00;;
59960;SDS011;55902;-37.980;-63.602;2022-12-11T05:41:09;5.82;;;1.25;;
59960;SDS011;55902;-37.980;-63.602;2022-12-11T05:43:42;8.80;;;1.20;;
59960;SDS011;55902;-37.980;-63.602;2022-12-11T05:48:44;8.68;;;1.70;;
59960;SDS011;55902;-37.980;-63.602;2022-12-11T05:51:13;6.18;;;1.00;;
59960;SDS011;55902;-37.980;-63.602;2022-12-11T05:53:47;7.18;;;1.00;;
59960;SDS011;55902;-37.980;-63.602;2022-12-11T05:56:19;8.52;;;1.30;;
59960;SDS011;55902;-37.980;-63.602;2022-12-11T05:58:48;5.30;;;1.48;;
59960;SDS011;55902;-37.980;-63.602;2022-12-11T06:03:59;5.05;;;1.10;;
59960;SDS011;55902;-37.980;-63.602;2022-12-11T06:06:27;6.68;;;1.27;;
59960;SDS011;55902;-37.980;-63.602;2022-12-11T06:08:55;4.97;;;0.90;;
59960;SDS011;55902;-37.980;-63.602;2022-12-11T06:11:23;4.72;;;1.40;;
59960;SDS011;55902;-37.980;-63.602;2022-12-11T06:13:51;4.55;;;1.20;;
59960;SDS011;55902;-37.980;-63.602;2022-12-11T06:16:21;4.13;;;1.02;;
59960;SDS011;55902;-37.980;-63.602;2022-12-11T06:18:54;6.47;;;0.90;;
59960;SDS011;55902;-37.980;-63.602;2022-12-11T06:21:22;2.92;;;1.10;;
59960;SDS011;55902;-37.980;-63.602;2022-12-11T06:23:52;5.75;;;1.30;;
59960;SDS011;55902;-37.980;-63.602;2022-12-11T06:26:20;4.38;;;1.23;;
59960;SDS011;55902;-37.980;-63.602;2022-12-11T06:28:48;8.52;;;1.30;;
59960;SDS011;55902;-37.980;-63.602;2022-12-11T06:31:16;3.58;;;1.00;;
59960;SDS011;55902;-37.980;-63.602;2022-12-11T06:33:44;5.38;;;1.30;;
59960;SDS011;55902;-37.980;-63.602;2022-12-11T06:36:13;7.43;;;1.30;;
59960;SDS011;55902;-37.980;-63.602;2022-12-11T06:38:41;7.13;;;1.20;;
59960;SDS011;55902;-37.980;-63.602;2022-12-11T06:41:08;4.93;;;1.20;;
59960;SDS011;55902;-37.980;-63.602;2022-12-11T06:46:57;6.00;;;1.30;;
59960;SDS011;55902;-37.980;-63.602;2022-12-11T06:49:24;5.47;;;1.05;;
59960;SDS011;55902;-37.980;-63.602;2022-12-11T06:51:51;4.05;;;1.33;;
59960;SDS011;55902;-37.980;-63.602;2022-12-11T06:54:18;6.50;;;1.48;;
59960;SDS011;55902;-37.980;-63.602;2022-12-11T06:56:45;4.53;;;1.05;;
59960;SDS011;55902;-37.980;-63.602;2022-12-11T06:59:12;5.22;;;1.50;;
59960;SDS011;55902;-37.980;-63.602;2022-12-11T07:01:39;7.57;;;1.48;;
59960;SDS011;55902;-37.980;-63.602;2022-12-11T07:04:06;6.38;;;1.50;;
59960;SDS011;55902;-37.980;-63.602;2022-12-11T07:06:37;6.10;;;1.50;;
59960;SDS011;55902;-37.980;-63.602;2022-12-11T07:09:04;5.82;;;1.75;;
59960;SDS011;55902;-37.980;-63.602;2022-12-11T07:11:31;7.95;;;1.60;;
59960;SDS011;55902;-37.980;-63.602;2022-12-11T07:13:58;5.32;;;1.70;;
59960;SDS011;55902;-37.980;-63.602;2022-12-11T07:16:31;6.38;;;1.70;;
59960;SDS011;55902;-37.980;-63.602;2022-12-11T07:18:58;9.35;;;1.80;;
59960;SDS011;55902;-37.980;-63.602;2022-12-11T07:21:25;3.65;;;1.38;;
59960;SDS011;55902;-37.980;-63.602;2022-12-11T07:23:55;5.63;;;1.65;;
59960;SDS011;55902;-37.980;-63.602;2022-12-11T07:26:23;6.85;;;1.58;;
59960;SDS011;55902;-37.980;-63.602;2022-12-11T07:28:50;8.23;;;1.60;;
59960;SDS011;55902;-37.980;-63.602;2022-12-11T07:31:21;4.72;;;1.42;;
59960;SDS011;55902;-37.980;-63.602;2022-12-11T07:33:53;9.65;;;1.40;;
59960;SDS011;55902;-37.980;-63.602;2022-12-11T07:36:25;7.00;;;1.17;;
59960;SDS011;55902;-37.980;-63.602;2022-12-11T07:38:56;9.63;;;1.40;;
59960;SDS011;55902;-37.980;-63.602;2022-12-11T07:41:28;7.00;;;1.20;;
59960;SDS011;55902;-37.980;-63.602;2022-12-11T07:43:56;8.68;;;1.67;;
59960;SDS011;55902;-37.980;-63.602;2022-12-11T07:46:25;5.78;;;1.20;;
59960;SDS011;55902;-37.980;-63.602;2022-12-11T07:48:57;4.95;;;1.00;;
59960;SDS011;55902;-37.980;-63.602;2022-12-11T07:51:28;5.63;;;1.35;;
59960;SDS011;55902;-37.980;-63.602;2022-12-11T07:54:01;5.22;;;1.17;;
59960;SDS011;55902;-37.980;-63.602;2022-12-11T07:56:41;5.25;;;1.25;;
59960;SDS011;55902;-37.980;-63.602;2022-12-11T07:59:09;4.03;;;1.20;;
59960;SDS011;55902;-37.980;-63.602;2022-12-11T08:01:39;7.00;;;1.27;;
59960;SDS011;55902;-37.980;-63.602;2022-12-11T08:04:09;5.25;;;1.30;;
59960;SDS011;55902;-37.980;-63.602;2022-12-11T08:06:40;6.88;;;1.58;;
59960;SDS011;55902;-37.980;-63.602;2022-12-11T08:09:08;2.58;;;1.10;;
59960;SDS011;55902;-37.980;-63.602;2022-12-11T08:11:39;6.47;;;1.17;;
59960;SDS011;55902;-37.980;-63.602;2022-12-11T08:14:06;3.03;;;1.17;;
59960;SDS011;55902;-37.980;-63.602;2022-12-11T08:16:33;3.80;;;1.00;;
59960;SDS011;55902;-37.980;-63.602;2022-12-11T08:19:01;7.75;;;1.58;;
59960;SDS011;55902;-37.980;-63.602;2022-12-11T08:21:28;4.50;;;1.10;;
59960;SDS011;55902;-37.980;-63.602;2022-12-11T08:23:57;5.60;;;1.45;;
59960;SDS011;55902;-37.980;-63.602;2022-12-11T08:26:26;6.28;;;1.10;;
59960;SDS011;55902;-37.980;-63.602;2022-12-11T08:28:55;5.07;;;1.20;;
59960;SDS011;55902;-37.980;-63.602;2022-12-11T08:31:29;4.47;;;1.10;;
59960;SDS011;55902;-37.980;-63.602;2022-12-11T08:33:56;5.38;;;1.10;;
59960;SDS011;55902;-37.980;-63.602;2022-12-11T08:36:23;4.47;;;1.02;;
59960;SDS011;55902;-37.980;-63.602;2022-12-11T08:38:54;4.18;;;0.93;;
59960;SDS011;55902;-37.980;-63.602;2022-12-11T08:41:25;7.07;;;1.02;;
59960;SDS011;55902;-37.980;-63.602;2022-12-11T08:43:54;6.93;;;1.27;;
59960;SDS011;55902;-37.980;-63.602;2022-12-11T08:46:31;7.53;;;1.10;;
59960;SDS011;55902;-37.980;-63.602;2022-12-11T08:49:02;3.70;;;1.10;;
59960;SDS011;55902;-37.980;-63.602;2022-12-11T08:51:29;6.20;;;1.20;;
59960;SDS011;55902;-37.980;-63.602;2022-12-11T08:53:57;6.72;;;1.73;;
59960;SDS011;55902;-37.980;-63.602;2022-12-11T08:56:29;4.97;;;1.13;;
59960;SDS011;55902;-37.980;-63.602;2022-12-11T08:58:59;5.75;;;1.52;;
59960;SDS011;55902;-37.980;-63.602;2022-12-11T09:01:27;5.90;;;1.45;;
59960;SDS011;55902;-37.980;-63.602;2022-12-11T09:03:57;6.65;;;1.30;;
59960;SDS011;55902;-37.980;-63.602;2022-12-11T09:06:25;5.60;;;1.27;;
59960;SDS011;55902;-37.980;-63.602;2022-12-11T09:29:57;9.35;;;1.30;;
59960;SDS011;55902;-37.980;-63.602;2022-12-11T09:32:27;7.07;;;1.30;;
59960;SDS011;55902;-37.980;-63.602;2022-12-11T09:34:59;6.25;;;1.40;;
59960;SDS011;55902;-37.980;-63.602;2022-12-11T09:37:26;5.00;;;1.17;;
59960;SDS011;55902;-37.980;-63.602;2022-12-11T09:39:57;6.88;;;1.30;;
59960;SDS011;55902;-37.980;-63.602;2022-12-11T09:44:59;5.13;;;1.20;;
59960;SDS011;55902;-37.980;-63.602;2022-12-11T09:50:31;5.95;;;1.35;;
59960;SDS011;55902;-37.980;-63.602;2022-12-11T09:53:04;4.47;;;1.23;;
59960;SDS011;55902;-37.980;-63.602;2022-12-11T09:56:03;3.63;;;1.00;;
59960;SDS011;55902;-37.980;-63.602;2022-12-11T10:04:29;3.55;;;0.95;;
59960;SDS011;55902;-37.980;-63.602;2022-12-11T10:09:42;3.17;;;1.13;;
59960;SDS011;55902;-37.980;-63.602;2022-12-11T10:17:30;3.20;;;1.02;;
59960;SDS011;55902;-37.980;-63.602;2022-12-11T10:22:45;3.92;;;0.93;;
59960;SDS011;55902;-37.980;-63.602;2022-12-11T10:25:26;4.82;;;1.02;;
59960;SDS011;55902;-37.980;-63.602;2022-12-11T10:27:54;4.93;;;0.90;;
59960;SDS011;55902;-37.980;-63.602;2022-12-11T10:30:25;3.30;;;0.98;;
59960;SDS011;55902;-37.980;-63.602;2022-12-11T10:40:54;3.33;;;0.98;;
59960;SDS011;55902;-37.980;-63.602;2022-12-11T10:43:35;2.53;;;0.80;;
59960;SDS011;55902;-37.980;-63.602;2022-12-11T10:46:03;4.53;;;1.33;;
59960;SDS011;55902;-37.980;-63.602;2022-12-11T10:48:34;1.88;;;0.80;;
59960;SDS011;55902;-37.980;-63.602;2022-12-11T10:51:11;9.38;;;1.15;;
59960;SDS011;55902;-37.980;-63.602;2022-12-11T10:53:40;4.53;;;0.90;;
59960;SDS011;55902;-37.980;-63.602;2022-12-11T10:56:10;3.70;;;0.90;;
59960;SDS011;55902;-37.980;-63.602;2022-12-11T10:58:47;1.67;;;0.80;;
59960;SDS011;55902;-37.980;-63.602;2022-12-11T11:01:19;8.85;;;1.20;;
59960;SDS011;55902;-37.980;-63.602;2022-12-11T11:06:38;5.13;;;0.95;;
59960;SDS011;55902;-37.980;-63.602;2022-12-11T11:09:21;3.42;;;0.98;;
59960;SDS011;55902;-37.980;-63.602;2022-12-11T11:12:02;7.47;;;1.00;;
59960;SDS011;55902;-37.980;-63.602;2022-12-11T11:14:30;3.92;;;1.00;;
59960;SDS011;55902;-37.980;-63.602;2022-12-11T11:16:57;9.05;;;1.30;;
59960;SDS011;55902;-37.980;-63.602;2022-12-11T11:22:21;7.55;;;1.00;;
59960;SDS011;55902;-37.980;-63.602;2022-12-11T11:29:57;7.45;;;0.90;;
59960;SDS011;55902;-37.980;-63.602;2022-12-11T11:32:33;6.95;;;1.10;;
59960;SDS011;55902;-37.980;-63.602;2022-12-11T11:37:36;4.93;;;1.02;;
59960;SDS011;55902;-37.980;-63.602;2022-12-11T11:40:10;8.32;;;1.00;;
59960;SDS011;55902;-37.980;-63.602;2022-12-11T11:42:46;7.60;;;1.00;;
59960;SDS011;55902;-37.980;-63.602;2022-12-11T11:45:52;6.78;;;1.00;;
59960;SDS011;55902;-37.980;-63.602;2022-12-11T11:51:42;4.90;;;1.00;;
59960;SDS011;55902;-37.980;-63.602;2022-12-11T11:54:30;11.73;;;1.48;;
59960;SDS011;55902;-37.980;-63.602;2022-12-11T11:57:09;5.32;;;1.00;;
59960;SDS011;55902;-37.980;-63.602;2022-12-11T11:59:48;6.35;;;1.02;;
59960;SDS011;55902;-37.980;-63.602;2022-12-11T12:02:22;9.68;;;1.05;;
59960;SDS011;55902;-37.980;-63.602;2022-12-11T12:04:49;6.35;;;1.00;;
59960;SDS011;55902;-37.980;-63.602;2022-12-11T12:12:36;6.03;;;0.93;;
59960;SDS011;55902;-37.980;-63.602;2022-12-11T12:20:51;6.22;;;1.00;;
59960;SDS011;55902;-37.980;-63.602;2022-12-11T12:23:37;8.00;;;1.38;;
59960;SDS011;55902;-37.980;-63.602;2022-12-11T12:26:27;18.83;;;1.70;;
59960;SDS011;55902;-37.980;-63.602;2022-12-11T12:38:14;8.73;;;1.40;;
59960;SDS011;55902;-37.980;-63.602;2022-12-11T12:48:39;4.57;;;1.13;;
59960;SDS011;55902;-37.980;-63.602;2022-12-11T12:51:06;4.45;;;0.80;;
59960;SDS011;55902;-37.980;-63.602;2022-12-11T12:53:40;8.48;;;1.00;;
59960;SDS011;55902;-37.980;-63.602;2022-12-11T12:56:11;6.03;;;0.90;;
59960;SDS011;55902;-37.980;-63.602;2022-12-11T13:08:47;5.57;;;0.93;;
59960;SDS011;55902;-37.980;-63.602;2022-12-11T13:11:16;6.85;;;1.00;;
59960;SDS011;55902;-37.980;-63.602;2022-12-11T13:14:01;8.48;;;1.10;;
59960;SDS011;55902;-37.980;-63.602;2022-12-11T13:16:37;9.55;;;1.40;;
59960;SDS011;55902;-37.980;-63.602;2022-12-11T13:22:00;3.67;;;0.80;;
59960;SDS011;55902;-37.980;-63.602;2022-12-11T13:24:45;4.32;;;0.90;;
59960;SDS011;55902;-37.980;-63.602;2022-12-11T13:35:43;5.47;;;1.20;;
59960;SDS011;55902;-37.980;-63.602;2022-12-11T13:38:20;8.13;;;1.10;;
59960;SDS011;55902;-37.980;-63.602;2022-12-11T13:40:51;6.50;;;0.88;;
59960;SDS011;55902;-37.980;-63.602;2022-12-11T13:43:25;7.10;;;1.20;;
59960;SDS011;55902;-37.980;-63.602;2022-12-11T13:45:55;5.43;;;0.80;;
59960;SDS011;55902;-37.980;-63.602;2022-12-11T13:50:57;7.82;;;1.08;;
59960;SDS011;55902;-37.980;-63.602;2022-12-11T13:53:28;12.85;;;1.30;;
59960;SDS011;55902;-37.980;-63.602;2022-12-11T13:56:19;8.82;;;0.90;;
59960;SDS011;55902;-37.980;-63.602;2022-12-11T13:58:50;5.10;;;1.05;;
59960;SDS011;55902;-37.980;-63.602;2022-12-11T14:01:45;4.07;;;0.88;;
59960;SDS011;55902;-37.980;-63.602;2022-12-11T14:04:19;5.13;;;0.90;;
59960;SDS011;55902;-37.980;-63.602;2022-12-11T14:06:47;7.88;;;1.50;;
59960;SDS011;55902;-37.980;-63.602;2022-12-11T14:09:19;5.07;;;1.00;;
59960;SDS011;55902;-37.980;-63.602;2022-12-11T14:11:51;7.20;;;1.00;;
59960;SDS011;55902;-37.980;-63.602;2022-12-11T14:14:23;14.82;;;1.50;;
59960;SDS011;55902;-37.980;-63.602;2022-12-11T14:17:03;4.15;;;0.90;;
59960;SDS011;55902;-37.980;-63.602;2022-12-11T14:29:34;10.10;;;1.23;;
59960;SDS011;55902;-37.980;-63.602;2022-12-11T14:32:02;6.57;;;1.10;;
59960;SDS011;55902;-37.980;-63.602;2022-12-11T14:34:35;3.53;;;0.85;;
59960;SDS011;55902;-37.980;-63.602;2022-12-11T14:37:12;7.28;;;1.08;;
59960;SDS011;55902;-37.980;-63.602;2022-12-11T14:42:38;4.35;;;0.88;;
59960;SDS011;55902;-37.980;-63.602;2022-12-11T14:45:11;4.63;;;0.90;;
59960;SDS011;55902;-37.980;-63.602;2022-12-11T14:47:48;4.53;;;0.90;;
59960;SDS011;55902;-37.980;-63.602;2022-12-11T14:55:53;6.75;;;0.80;;
59960;SDS011;55902;-37.980;-63.602;2022-12-11T14:58:28;3.25;;;0.73;;
59960;SDS011;55902;-37.980;-63.602;2022-12-11T15:01:19;6.65;;;0.90;;
59960;SDS011;55902;-37.980;-63.602;2022-12-11T15:04:00;2.83;;;0.70;;
59960;SDS011;55902;-37.980;-63.602;2022-12-11T15:06:41;6.55;;;1.20;;
59960;SDS011;55902;-37.980;-63.602;2022-12-11T15:12:07;10.43;;;1.35;;
59960;SDS011;55902;-37.980;-63.602;2022-12-11T15:14:50;6.30;;;0.98;;
59960;SDS011;55902;-37.980;-63.602;2022-12-11T15:17:31;9.13;;;1.00;;
59960;SDS011;55902;-37.980;-63.602;2022-12-11T15:20:07;5.13;;;0.82;;
59960;SDS011;55902;-37.980;-63.602;2022-12-11T15:22:48;6.70;;;1.05;;
59960;SDS011;55902;-37.980;-63.602;2022-12-11T15:25:16;5.32;;;0.85;;
59960;SDS011;55902;-37.980;-63.602;2022-12-11T15:27:56;4.63;;;0.68;;
59960;SDS011;55902;-37.980;-63.602;2022-12-11T15:30:32;9.70;;;0.98;;
59960;SDS011;55902;-37.980;-63.602;2022-12-11T15:33:03;6.28;;;1.00;;
59960;SDS011;55902;-37.980;-63.602;2022-12-11T15:35:57;5.57;;;0.55;;
59960;SDS011;55902;-37.980;-63.602;2022-12-11T15:38:31;6.90;;;1.10;;
59960;SDS011;55902;-37.980;-63.602;2022-12-11T15:40:58;5.32;;;1.10;;
59960;SDS011;55902;-37.980;-63.602;2022-12-11T15:43:26;9.73;;;0.98;;
59960;SDS011;55902;-37.980;-63.602;2022-12-11T15:45:57;8.25;;;1.05;;
59960;SDS011;55902;-37.980;-63.602;2022-12-11T15:48:27;8.93;;;1.10;;
59960;SDS011;55902;-37.980;-63.602;2022-12-11T15:50:54;5.38;;;0.90;;
59960;SDS011;55902;-37.980;-63.602;2022-12-11T15:53:21;5.22;;;0.80;;
59960;SDS011;55902;-37.980;-63.602;2022-12-11T15:55:48;6.15;;;0.90;;
59960;SDS011;55902;-37.980;-63.602;2022-12-11T15:58:16;5.93;;;0.90;;
59960;SDS011;55902;-37.980;-63.602;2022-12-11T16:00:49;3.28;;;0.70;;
59960;SDS011;55902;-37.980;-63.602;2022-12-11T16:03:17;8.20;;;1.05;;
59960;SDS011;55902;-37.980;-63.602;2022-12-11T16:05:45;3.53;;;0.73;;
59960;SDS011;55902;-37.980;-63.602;2022-12-11T16:08:15;19.48;;;2.20;;
59960;SDS011;55902;-37.980;-63.602;2022-12-11T16:14:05;2.83;;;0.85;;
59960;SDS011;55902;-37.980;-63.602;2022-12-11T16:16:33;7.32;;;1.20;;
59960;SDS011;55902;-37.980;-63.602;2022-12-11T16:19:00;14.98;;;1.48;;
59960;SDS011;55902;-37.980;-63.602;2022-12-11T16:21:28;10.65;;;1.30;;
59960;SDS011;55902;-37.980;-63.602;2022-12-11T16:23:55;11.02;;;1.63;;
59960;SDS011;55902;-37.980;-63.602;2022-12-11T16:26:22;8.55;;;1.33;;
59960;SDS011;55902;-37.980;-63.602;2022-12-11T16:28:49;7.80;;;1.38;;
59960;SDS011;55902;-37.980;-63.602;2022-12-11T16:31:16;8.95;;;1.35;;
59960;SDS011;55902;-37.980;-63.602;2022-12-11T16:33:46;15.40;;;2.10;;
59960;SDS011;55902;-37.980;-63.602;2022-12-11T16:36:17;5.15;;;0.88;;
59960;SDS011;55902;-37.980;-63.602;2022-12-11T16:38:48;14.68;;;1.90;;
59960;SDS011;55902;-37.980;-63.602;2022-12-11T16:41:15;12.07;;;1.20;;
59960;SDS011;55902;-37.980;-63.602;2022-12-11T16:43:42;3.35;;;0.60;;
59960;SDS011;55902;-37.980;-63.602;2022-12-11T16:46:10;3.28;;;0.75;;
59960;SDS011;55902;-37.980;-63.602;2022-12-11T16:48:39;4.53;;;0.80;;
59960;SDS011;55902;-37.980;-63.602;2022-12-11T16:51:13;11.60;;;1.05;;
59960;SDS011;55902;-37.980;-63.602;2022-12-11T16:53:44;9.30;;;1.35;;
59960;SDS011;55902;-37.980;-63.602;2022-12-11T16:56:11;6.38;;;0.90;;
59960;SDS011;55902;-37.980;-63.602;2022-12-11T17:02:01;2.67;;;0.70;;
59960;SDS011;55902;-37.980;-63.602;2022-12-11T17:04:38;8.55;;;0.90;;
59960;SDS011;55902;-37.980;-63.602;2022-12-11T17:07:08;9.50;;;0.80;;
59960;SDS011;55902;-37.980;-63.602;2022-12-11T17:09:37;4.90;;;0.63;;
59960;SDS011;55902;-37.980;-63.602;2022-12-11T17:12:07;3.10;;;0.60;;
59960;SDS011;55902;-37.980;-63.602;2022-12-11T17:14:39;6.15;;;0.70;;
59960;SDS011;55902;-37.980;-63.602;2022-12-11T17:17:06;6.20;;;0.70;;
59960;SDS011;55902;-37.980;-63.602;2022-12-11T17:19:34;11.55;;;1.35;;
59960;SDS011;55902;-37.980;-63.602;2022-12-11T17:22:01;6.50;;;0.95;;
59960;SDS011;55902;-37.980;-63.602;2022-12-11T17:24:31;13.68;;;1.25;;
59960;SDS011;55902;-37.980;-63.602;2022-12-11T17:26:58;5.65;;;0.75;;
59960;SDS011;55902;-37.980;-63.602;2022-12-11T17:29:30;4.75;;;0.68;;
59960;SDS011;55902;-37.980;-63.602;2022-12-11T17:31:57;9.48;;;1.10;;
59960;SDS011;55902;-37.980;-63.602;2022-12-11T17:34:24;4.47;;;1.00;;
59960;SDS011;55902;-37.980;-63.602;2022-12-11T17:36:51;2.78;;;0.68;;
59960;SDS011;55902;-37.980;-63.602;2022-12-11T17:39:17;2.28;;;0.47;;
59960;SDS011;55902;-37.980;-63.602;2022-12-11T17:41:47;4.05;;;0.75;;
59960;SDS011;55902;-37.980;-63.602;2022-12-11T17:44:18;6.18;;;0.88;;
59960;SDS011;55902;-37.980;-63.602;2022-12-11T17:46:45;2.47;;;0.60;;
59960;SDS011;55902;-37.980;-63.602;2022-12-11T17:49:11;5.28;;;0.80;;
59960;SDS011;55902;-37.980;-63.602;2022-12-11T17:51:38;2.55;;;0.80;;
59960;SDS011;55902;-37.980;-63.602;2022-12-11T17:54:08;7.75;;;0.82;;